sensor_id;sensor_type;location;lat;lon;timestamp;pressure;altitude;pressure_sealevel;temperature
24278;BMP280;12394;42.692;23.314;2023-07-28T00:01:54;95107.22;;;17.76
24278;BMP280;12394;42.692;23.314;2023-07-28T00:04:20;95087.69;;;17.61
24278;BMP280;12394;42.692;23.314;2023-07-28T00:06:45;95099.53;;;17.69
24278;BMP280;12394;42.692;23.314;2023-07-28T00:09:10;95105.22;;;17.68
24278;BMP280;12394;42.692;23.314;2023-07-28T00:11:36;95103.03;;;17.66
24278;BMP280;12394;42.692;23.314;2023-07-28T00:14:02;95099.00;;;17.62
24278;BMP280;12394;42.692;23.314;2023-07-28T00:16:27;95066.53;;;17.36
24278;BMP280;12394;42.692;23.314;2023-07-28T00:18:52;95101.09;;;17.54
24278;BMP280;12394;42.692;23.314;2023-07-28T00:21:18;95058.50;;;17.27
24278;BMP280;12394;42.692;23.314;2023-07-28T00:23:43;95102.69;;;17.52
24278;BMP280;12394;42.692;23.314;2023-07-28T00:26:09;95099.00;;;17.49
24278;BMP280;12394;42.692;23.314;2023-07-28T00:28:34;95081.13;;;17.41
24278;BMP280;12394;42.692;23.314;2023-07-28T00:30:59;95084.50;;;17.41
24278;BMP280;12394;42.692;23.314;2023-07-28T00:33:25;95057.59;;;17.21
24278;BMP280;12394;42.692;23.314;2023-07-28T00:35:50;95084.41;;;17.32
24278;BMP280;12394;42.692;23.314;2023-07-28T00:38:16;95072.38;;;17.18
24278;BMP280;12394;42.692;23.314;2023-07-28T00:40:41;95080.44;;;17.15
24278;BMP280;12394;42.692;23.314;2023-07-28T00:43:07;95103.28;;;17.21
24278;BMP280;12394;42.692;23.314;2023-07-28T00:45:33;95099.25;;;17.17
24278;BMP280;12394;42.692;23.314;2023-07-28T00:47:59;95102.97;;;17.07
24278;BMP280;12394;42.692;23.314;2023-07-28T00:50:25;95102.84;;;17.10
24278;BMP280;12394;42.692;23.314;2023-07-28T00:52:51;95098.09;;;17.05
24278;BMP280;12394;42.692;23.314;2023-07-28T00:55:17;95092.16;;;17.01
24278;BMP280;12394;42.692;23.314;2023-07-28T00:57:43;95093.97;;;16.92
24278;BMP280;12394;42.692;23.314;2023-07-28T01:00:09;95091.84;;;16.86
24278;BMP280;12394;42.692;23.314;2023-07-28T01:02:36;95101.03;;;16.82
24278;BMP280;12394;42.692;23.314;2023-07-28T01:05:02;95095.84;;;16.78
24278;BMP280;12394;42.692;23.314;2023-07-28T01:07:37;95102.50;;;16.70
24278;BMP280;12394;42.692;23.314;2023-07-28T01:10:13;95089.41;;;16.67
24278;BMP280;12394;42.692;23.314;2023-07-28T01:12:40;95102.19;;;16.68
24278;BMP280;12394;42.692;23.314;2023-07-28T01:15:06;95092.13;;;16.63
24278;BMP280;12394;42.692;23.314;2023-07-28T01:17:32;95098.91;;;16.64
24278;BMP280;12394;42.692;23.314;2023-07-28T01:19:57;95101.66;;;16.61
24278;BMP280;12394;42.692;23.314;2023-07-28T01:22:46;95091.03;;;16.48
24278;BMP280;12394;42.692;23.314;2023-07-28T01:28:20;95098.63;;;16.46
24278;BMP280;12394;42.692;23.314;2023-07-28T01:30:45;95084.44;;;16.40
24278;BMP280;12394;42.692;23.314;2023-07-28T01:33:11;95075.53;;;16.21
24278;BMP280;12394;42.692;23.314;2023-07-28T01:35:37;95085.50;;;16.30
24278;BMP280;12394;42.692;23.314;2023-07-28T01:38:03;95092.91;;;16.35
24278;BMP280;12394;42.692;23.314;2023-07-28T01:40:29;95099.66;;;16.36
24278;BMP280;12394;42.692;23.314;2023-07-28T01:42:54;95090.44;;;16.28
24278;BMP280;12394;42.692;23.314;2023-07-28T01:45:20;95091.59;;;16.27
24278;BMP280;12394;42.692;23.314;2023-07-28T01:47:45;95105.78;;;16.33
24278;BMP280;12394;42.692;23.314;2023-07-28T01:50:10;95095.72;;;16.28
24278;BMP280;12394;42.692;23.314;2023-07-28T01:52:36;95095.06;;;16.24
24278;BMP280;12394;42.692;23.314;2023-07-28T01:55:01;95095.06;;;16.24
24278;BMP280;12394;42.692;23.314;2023-07-28T01:57:30;95098.22;;;16.19
24278;BMP280;12394;42.692;23.314;2023-07-28T01:59:56;95097.34;;;16.09
24278;BMP280;12394;42.692;23.314;2023-07-28T02:02:21;95096.59;;;16.09
24278;BMP280;12394;42.692;23.314;2023-07-28T02:04:47;95108.66;;;16.10
24278;BMP280;12394;42.692;23.314;2023-07-28T02:07:12;95096.59;;;16.09
24278;BMP280;12394;42.692;23.314;2023-07-28T02:09:37;95101.28;;;16.17
24278;BMP280;12394;42.692;23.314;2023-07-28T02:12:03;95097.47;;;16.18
24278;BMP280;12394;42.692;23.314;2023-07-28T02:14:28;95096.56;;;16.25
24278;BMP280;12394;42.692;23.314;2023-07-28T02:16:54;95092.63;;;16.17
24278;BMP280;12394;42.692;23.314;2023-07-28T02:19:19;95086.38;;;16.11
24278;BMP280;12394;42.692;23.314;2023-07-28T02:21:45;95096.94;;;16.11
24278;BMP280;12394;42.692;23.314;2023-07-28T02:24:10;95097.44;;;16.06
24278;BMP280;12394;42.692;23.314;2023-07-28T02:26:35;95104.63;;;16.05
24278;BMP280;12394;42.692;23.314;2023-07-28T02:29:01;95114.66;;;16.10
24278;BMP280;12394;42.692;23.314;2023-07-28T02:31:26;95115.06;;;16.09
24278;BMP280;12394;42.692;23.314;2023-07-28T02:33:52;95107.66;;;16.03
24278;BMP280;12394;42.692;23.314;2023-07-28T02:36:17;95120.84;;;16.03
24278;BMP280;12394;42.692;23.314;2023-07-28T02:38:43;95097.94;;;16.00
24278;BMP280;12394;42.692;23.314;2023-07-28T02:41:08;95107.59;;;16.07
24278;BMP280;12394;42.692;23.314;2023-07-28T02:43:33;95105.03;;;16.03
24278;BMP280;12394;42.692;23.314;2023-07-28T02:46:00;95103.88;;;16.05
24278;BMP280;12394;42.692;23.314;2023-07-28T02:48:25;95111.16;;;16.00
24278;BMP280;12394;42.692;23.314;2023-07-28T02:50:51;95095.31;;;16.00
24278;BMP280;12394;42.692;23.314;2023-07-28T02:53:17;95115.28;;;16.01
24278;BMP280;12394;42.692;23.314;2023-07-28T02:55:43;95101.22;;;16.05
24278;BMP280;12394;42.692;23.314;2023-07-28T02:58:09;95106.09;;;16.06
24278;BMP280;12394;42.692;23.314;2023-07-28T03:00:39;95097.31;;;15.96
24278;BMP280;12394;42.692;23.314;2023-07-28T03:03:05;95098.78;;;15.97
24278;BMP280;12394;42.692;23.314;2023-07-28T03:05:31;95102.06;;;16.01
24278;BMP280;12394;42.692;23.314;2023-07-28T03:07:57;95098.66;;;15.88
24278;BMP280;12394;42.692;23.314;2023-07-28T03:10:23;95116.41;;;16.00
24278;BMP280;12394;42.692;23.314;2023-07-28T03:12:48;95116.41;;;16.00
24278;BMP280;12394;42.692;23.314;2023-07-28T03:15:14;95109.84;;;15.92
24278;BMP280;12394;42.692;23.314;2023-07-28T03:17:39;95113.88;;;15.97
24278;BMP280;12394;42.692;23.314;2023-07-28T03:20:05;95099.16;;;15.83
24278;BMP280;12394;42.692;23.314;2023-07-28T03:22:31;95124.44;;;15.97
24278;BMP280;12394;42.692;23.314;2023-07-28T03:24:57;95115.13;;;15.92
24278;BMP280;12394;42.692;23.314;2023-07-28T03:27:22;95115.03;;;15.96
24278;BMP280;12394;42.692;23.314;2023-07-28T03:29:47;95119.25;;;15.93
24278;BMP280;12394;42.692;23.314;2023-07-28T03:32:13;95128.97;;;15.96
24278;BMP280;12394;42.692;23.314;2023-07-28T03:34:38;95135.00;;;15.97
24278;BMP280;12394;42.692;23.314;2023-07-28T03:37:04;95123.94;;;15.86
24278;BMP280;12394;42.692;23.314;2023-07-28T03:39:30;95129.72;;;15.97
24278;BMP280;12394;42.692;23.314;2023-07-28T03:41:56;95090.75;;;15.72
24278;BMP280;12394;42.692;23.314;2023-07-28T03:44:22;95126.81;;;15.91
24278;BMP280;12394;42.692;23.314;2023-07-28T03:46:48;95137.13;;;15.86
24278;BMP280;12394;42.692;23.314;2023-07-28T03:49:13;95142.91;;;15.81
24278;BMP280;12394;42.692;23.314;2023-07-28T03:51:39;95136.09;;;15.83
24278;BMP280;12394;42.692;23.314;2023-07-28T03:54:04;95122.25;;;15.79
24278;BMP280;12394;42.692;23.314;2023-07-28T03:56:30;95135.53;;;16.05
24278;BMP280;12394;42.692;23.314;2023-07-28T03:58:55;95130.75;;;16.16
24278;BMP280;12394;42.692;23.314;2023-07-28T04:01:21;95133.69;;;16.18
24278;BMP280;12394;42.692;23.314;2023-07-28T04:03:47;95130.88;;;16.25
24278;BMP280;12394;42.692;23.314;2023-07-28T04:06:13;95129.06;;;16.22
24278;BMP280;12394;42.692;23.314;2023-07-28T04:08:39;95102.88;;;16.15
24278;BMP280;12394;42.692;23.314;2023-07-28T04:11:05;95140.75;;;16.37
24278;BMP280;12394;42.692;23.314;2023-07-28T04:13:30;95143.34;;;16.24
24278;BMP280;12394;42.692;23.314;2023-07-28T04:15:56;95151.50;;;16.30
24278;BMP280;12394;42.692;23.314;2023-07-28T04:18:21;95145.38;;;16.33
24278;BMP280;12394;42.692;23.314;2023-07-28T04:20:46;95137.78;;;16.35
24278;BMP280;12394;42.692;23.314;2023-07-28T04:23:12;95137.38;;;16.49
24278;BMP280;12394;42.692;23.314;2023-07-28T04:25:37;95143.81;;;16.64
24278;BMP280;12394;42.692;23.314;2023-07-28T04:28:03;95141.81;;;16.68
24278;BMP280;12394;42.692;23.314;2023-07-28T04:30:28;95152.63;;;16.86
24278;BMP280;12394;42.692;23.314;2023-07-28T04:32:54;95146.19;;;17.00
24278;BMP280;12394;42.692;23.314;2023-07-28T04:35:19;95149.34;;;16.82
24278;BMP280;12394;42.692;23.314;2023-07-28T04:37:45;95140.59;;;16.98
24278;BMP280;12394;42.692;23.314;2023-07-28T04:40:11;95135.28;;;16.85
24278;BMP280;12394;42.692;23.314;2023-07-28T04:42:36;95144.28;;;17.01
24278;BMP280;12394;42.692;23.314;2023-07-28T04:45:02;95143.44;;;17.04
24278;BMP280;12394;42.692;23.314;2023-07-28T04:47:28;95152.31;;;17.10
24278;BMP280;12394;42.692;23.314;2023-07-28T04:49:53;95149.28;;;17.24
24278;BMP280;12394;42.692;23.314;2023-07-28T04:52:19;95153.81;;;17.36
24278;BMP280;12394;42.692;23.314;2023-07-28T04:54:44;95144.41;;;17.35
24278;BMP280;12394;42.692;23.314;2023-07-28T04:57:09;95145.97;;;17.45
24278;BMP280;12394;42.692;23.314;2023-07-28T04:59:35;95144.91;;;17.55
24278;BMP280;12394;42.692;23.314;2023-07-28T05:02:00;95151.19;;;17.61
24278;BMP280;12394;42.692;23.314;2023-07-28T05:04:26;95144.63;;;17.66
24278;BMP280;12394;42.692;23.314;2023-07-28T05:06:51;95149.38;;;17.58
24278;BMP280;12394;42.692;23.314;2023-07-28T05:09:17;95145.25;;;17.57
24278;BMP280;12394;42.692;23.314;2023-07-28T05:11:43;95145.44;;;17.50
24278;BMP280;12394;42.692;23.314;2023-07-28T05:14:08;95145.56;;;17.59
24278;BMP280;12394;42.692;23.314;2023-07-28T05:16:34;95147.38;;;17.62
24278;BMP280;12394;42.692;23.314;2023-07-28T05:18:59;95139.53;;;17.59
24278;BMP280;12394;42.692;23.314;2023-07-28T05:21:25;95137.09;;;17.64
24278;BMP280;12394;42.692;23.314;2023-07-28T05:23:50;95142.38;;;17.64
24278;BMP280;12394;42.692;23.314;2023-07-28T05:26:16;95142.47;;;17.73
24278;BMP280;12394;42.692;23.314;2023-07-28T05:28:41;95141.53;;;17.80
24278;BMP280;12394;42.692;23.314;2023-07-28T05:31:07;95134.34;;;17.81
24278;BMP280;12394;42.692;23.314;2023-07-28T05:33:33;95151.56;;;17.85
24278;BMP280;12394;42.692;23.314;2023-07-28T05:36:02;95143.41;;;17.92
24278;BMP280;12394;42.692;23.314;2023-07-28T05:38:29;95152.78;;;18.06
24278;BMP280;12394;42.692;23.314;2023-07-28T05:40:58;95137.09;;;18.11
24278;BMP280;12394;42.692;23.314;2023-07-28T05:43:25;95144.34;;;17.98
24278;BMP280;12394;42.692;23.314;2023-07-28T05:45:51;95124.44;;;17.94
24278;BMP280;12394;42.692;23.314;2023-07-28T05:48:16;95130.13;;;18.05
24278;BMP280;12394;42.692;23.314;2023-07-28T05:50:42;95100.00;;;17.90
24278;BMP280;12394;42.692;23.314;2023-07-28T05:53:07;95128.47;;;18.20
24278;BMP280;12394;42.692;23.314;2023-07-28T05:55:33;95131.25;;;18.16
24278;BMP280;12394;42.692;23.314;2023-07-28T05:57:58;95136.38;;;18.33
24278;BMP280;12394;42.692;23.314;2023-07-28T06:00:23;95130.38;;;18.41
24278;BMP280;12394;42.692;23.314;2023-07-28T06:02:49;95129.59;;;18.53
24278;BMP280;12394;42.692;23.314;2023-07-28T06:05:14;95128.75;;;18.56
24278;BMP280;12394;42.692;23.314;2023-07-28T06:07:40;95121.16;;;18.67
24278;BMP280;12394;42.692;23.314;2023-07-28T06:10:06;95118.25;;;18.75
24278;BMP280;12394;42.692;23.314;2023-07-28T06:12:32;95124.72;;;18.74
24278;BMP280;12394;42.692;23.314;2023-07-28T06:14:57;95120.44;;;18.98
24278;BMP280;12394;42.692;23.314;2023-07-28T06:17:23;95130.91;;;19.01
24278;BMP280;12394;42.692;23.314;2023-07-28T06:19:48;95099.47;;;18.91
24278;BMP280;12394;42.692;23.314;2023-07-28T06:22:13;95127.16;;;19.21
24278;BMP280;12394;42.692;23.314;2023-07-28T06:24:39;95125.22;;;19.12
24278;BMP280;12394;42.692;23.314;2023-07-28T06:27:05;95124.59;;;19.39
24278;BMP280;12394;42.692;23.314;2023-07-28T06:29:33;95116.31;;;19.37
24278;BMP280;12394;42.692;23.314;2023-07-28T06:31:59;95120.88;;;19.36
24278;BMP280;12394;42.692;23.314;2023-07-28T06:34:24;95118.38;;;19.42
24278;BMP280;12394;42.692;23.314;2023-07-28T06:36:50;95115.97;;;19.57
24278;BMP280;12394;42.692;23.314;2023-07-28T06:39:15;95102.22;;;19.58
24278;BMP280;12394;42.692;23.314;2023-07-28T06:41:40;95117.72;;;19.60
24278;BMP280;12394;42.692;23.314;2023-07-28T06:44:06;95116.06;;;19.44
24278;BMP280;12394;42.692;23.314;2023-07-28T06:46:33;95103.63;;;19.41
24278;BMP280;12394;42.692;23.314;2023-07-28T06:48:59;95117.41;;;19.48
24278;BMP280;12394;42.692;23.314;2023-07-28T06:51:25;95113.91;;;19.70
24278;BMP280;12394;42.692;23.314;2023-07-28T06:53:51;95116.44;;;19.82
24278;BMP280;12394;42.692;23.314;2023-07-28T06:56:16;95121.03;;;20.09
24278;BMP280;12394;42.692;23.314;2023-07-28T06:58:42;95122.34;;;20.23
24278;BMP280;12394;42.692;23.314;2023-07-28T07:01:07;95107.59;;;20.40
24278;BMP280;12394;42.692;23.314;2023-07-28T07:03:36;95098.88;;;20.67
24278;BMP280;12394;42.692;23.314;2023-07-28T07:06:02;95116.81;;;20.81
24278;BMP280;12394;42.692;23.314;2023-07-28T07:08:28;95112.69;;;20.89
24278;BMP280;12394;42.692;23.314;2023-07-28T07:10:53;95101.75;;;20.87
24278;BMP280;12394;42.692;23.314;2023-07-28T07:13:19;95092.28;;;20.86
24278;BMP280;12394;42.692;23.314;2023-07-28T07:15:45;95106.09;;;21.08
24278;BMP280;12394;42.692;23.314;2023-07-28T07:18:11;95080.22;;;21.18
24278;BMP280;12394;42.692;23.314;2023-07-28T07:20:37;95112.22;;;21.65
24278;BMP280;12394;42.692;23.314;2023-07-28T07:23:04;95116.69;;;21.83
24278;BMP280;12394;42.692;23.314;2023-07-28T07:25:30;95093.34;;;22.02
24278;BMP280;12394;42.692;23.314;2023-07-28T07:27:55;95108.22;;;22.47
24278;BMP280;12394;42.692;23.314;2023-07-28T07:30:21;95116.34;;;22.82
24278;BMP280;12394;42.692;23.314;2023-07-28T07:32:46;95103.63;;;23.06
24278;BMP280;12394;42.692;23.314;2023-07-28T07:35:12;95114.28;;;23.21
24278;BMP280;12394;42.692;23.314;2023-07-28T07:37:38;95110.28;;;23.31
24278;BMP280;12394;42.692;23.314;2023-07-28T07:40:04;95118.56;;;23.68
24278;BMP280;12394;42.692;23.314;2023-07-28T07:42:41;95124.44;;;24.12
24278;BMP280;12394;42.692;23.314;2023-07-28T07:45:09;95123.25;;;24.59
24278;BMP280;12394;42.692;23.314;2023-07-28T07:47:35;95116.16;;;24.82
24278;BMP280;12394;42.692;23.314;2023-07-28T07:50:00;95121.50;;;25.39
24278;BMP280;12394;42.692;23.314;2023-07-28T07:52:26;95121.03;;;25.94
24278;BMP280;12394;42.692;23.314;2023-07-28T07:54:51;95120.25;;;26.36
24278;BMP280;12394;42.692;23.314;2023-07-28T07:57:16;95110.06;;;26.74
24278;BMP280;12394;42.692;23.314;2023-07-28T07:59:42;95113.47;;;27.41
24278;BMP280;12394;42.692;23.314;2023-07-28T08:02:08;95105.34;;;27.74
24278;BMP280;12394;42.692;23.314;2023-07-28T08:04:33;95132.00;;;28.36
24278;BMP280;12394;42.692;23.314;2023-07-28T08:06:59;95122.06;;;29.26
24278;BMP280;12394;42.692;23.314;2023-07-28T08:09:24;95119.88;;;30.02
24278;BMP280;12394;42.692;23.314;2023-07-28T08:11:50;95119.06;;;30.96
24278;BMP280;12394;42.692;23.314;2023-07-28T08:14:16;95112.78;;;31.64
24278;BMP280;12394;42.692;23.314;2023-07-28T08:16:41;95120.63;;;32.28
24278;BMP280;12394;42.692;23.314;2023-07-28T08:19:07;95107.06;;;32.41
24278;BMP280;12394;42.692;23.314;2023-07-28T08:21:32;95118.66;;;33.17
24278;BMP280;12394;42.692;23.314;2023-07-28T08:24:02;95107.53;;;33.28
24278;BMP280;12394;42.692;23.314;2023-07-28T08:26:29;95080.47;;;32.94
24278;BMP280;12394;42.692;23.314;2023-07-28T08:28:55;95110.44;;;33.59
24278;BMP280;12394;42.692;23.314;2023-07-28T08:31:20;95108.03;;;33.47
24278;BMP280;12394;42.692;23.314;2023-07-28T08:33:46;95106.53;;;34.03
24278;BMP280;12394;42.692;23.314;2023-07-28T08:36:12;95102.63;;;35.08
24278;BMP280;12394;42.692;23.314;2023-07-28T08:38:37;95105.00;;;35.35
24278;BMP280;12394;42.692;23.314;2023-07-28T08:41:03;95108.63;;;35.14
24278;BMP280;12394;42.692;23.314;2023-07-28T08:43:30;95111.31;;;35.60
24278;BMP280;12394;42.692;23.314;2023-07-28T08:45:56;95108.72;;;35.92
24278;BMP280;12394;42.692;23.314;2023-07-28T08:48:23;95098.28;;;35.43
24278;BMP280;12394;42.692;23.314;2023-07-28T08:50:49;95107.50;;;35.78
24278;BMP280;12394;42.692;23.314;2023-07-28T08:53:14;95091.47;;;35.97
24278;BMP280;12394;42.692;23.314;2023-07-28T08:55:40;95094.47;;;37.14
24278;BMP280;12394;42.692;23.314;2023-07-28T08:58:16;95093.44;;;37.43
24278;BMP280;12394;42.692;23.314;2023-07-28T09:00:42;95072.66;;;37.31
24278;BMP280;12394;42.692;23.314;2023-07-28T09:03:09;95084.84;;;38.06
24278;BMP280;12394;42.692;23.314;2023-07-28T09:05:34;95081.38;;;38.33
24278;BMP280;12394;42.692;23.314;2023-07-28T09:08:00;95068.84;;;39.29
24278;BMP280;12394;42.692;23.314;2023-07-28T09:10:43;95068.88;;;39.68
24278;BMP280;12394;42.692;23.314;2023-07-28T09:13:10;95058.50;;;39.76
24278;BMP280;12394;42.692;23.314;2023-07-28T09:15:37;95050.91;;;40.43
24278;BMP280;12394;42.692;23.314;2023-07-28T09:18:03;95051.88;;;40.58
24278;BMP280;12394;42.692;23.314;2023-07-28T09:20:34;95044.16;;;42.36
24278;BMP280;12394;42.692;23.314;2023-07-28T09:23:01;95030.31;;;41.68
24278;BMP280;12394;42.692;23.314;2023-07-28T09:25:31;95037.16;;;42.11
24278;BMP280;12394;42.692;23.314;2023-07-28T09:27:57;95035.47;;;42.06
24278;BMP280;12394;42.692;23.314;2023-07-28T09:30:24;94989.09;;;42.12
24278;BMP280;12394;42.692;23.314;2023-07-28T09:32:51;95029.13;;;43.07
24278;BMP280;12394;42.692;23.314;2023-07-28T09:35:17;95013.97;;;43.31
24278;BMP280;12394;42.692;23.314;2023-07-28T09:37:46;95009.50;;;45.34
24278;BMP280;12394;42.692;23.314;2023-07-28T09:40:15;94997.31;;;45.98
24278;BMP280;12394;42.692;23.314;2023-07-28T09:42:46;94988.66;;;45.17
24278;BMP280;12394;42.692;23.314;2023-07-28T09:45:18;94997.16;;;45.22
24278;BMP280;12394;42.692;23.314;2023-07-28T09:47:47;94963.44;;;44.68
24278;BMP280;12394;42.692;23.314;2023-07-28T09:50:15;94991.59;;;44.65
24278;BMP280;12394;42.692;23.314;2023-07-28T09:52:43;94981.03;;;45.02
24278;BMP280;12394;42.692;23.314;2023-07-28T09:55:11;94990.38;;;45.68
24278;BMP280;12394;42.692;23.314;2023-07-28T09:57:41;94984.47;;;45.16
24278;BMP280;12394;42.692;23.314;2023-07-28T10:00:11;94987.41;;;45.77
24278;BMP280;12394;42.692;23.314;2023-07-28T10:02:38;94979.31;;;46.13
24278;BMP280;12394;42.692;23.314;2023-07-28T10:05:05;94974.25;;;45.19
24278;BMP280;12394;42.692;23.314;2023-07-28T10:07:32;94976.31;;;45.05
24278;BMP280;12394;42.692;23.314;2023-07-28T10:09:58;94972.31;;;44.40
24278;BMP280;12394;42.692;23.314;2023-07-28T10:12:24;94968.91;;;45.23
24278;BMP280;12394;42.692;23.314;2023-07-28T10:15:01;94959.38;;;44.69
24278;BMP280;12394;42.692;23.314;2023-07-28T10:17:33;94969.47;;;45.06
24278;BMP280;12394;42.692;23.314;2023-07-28T10:20:04;94953.50;;;44.91
24278;BMP280;12394;42.692;23.314;2023-07-28T10:22:43;94974.28;;;45.35
24278;BMP280;12394;42.692;23.314;2023-07-28T10:25:12;94965.09;;;45.89
24278;BMP280;12394;42.692;23.314;2023-07-28T10:27:40;94957.78;;;44.94
24278;BMP280;12394;42.692;23.314;2023-07-28T10:30:10;94951.53;;;45.07
24278;BMP280;12394;42.692;23.314;2023-07-28T10:32:44;94951.34;;;44.89
24278;BMP280;12394;42.692;23.314;2023-07-28T10:37:43;94951.25;;;44.46
24278;BMP280;12394;42.692;23.314;2023-07-28T10:40:23;94952.91;;;44.24
24278;BMP280;12394;42.692;23.314;2023-07-28T10:42:51;94947.75;;;43.79
24278;BMP280;12394;42.692;23.314;2023-07-28T10:45:17;94935.53;;;42.83
24278;BMP280;12394;42.692;23.314;2023-07-28T10:47:44;94937.28;;;41.53
24278;BMP280;12394;42.692;23.314;2023-07-28T10:50:10;94929.19;;;40.08
24278;BMP280;12394;42.692;23.314;2023-07-28T10:52:43;94927.88;;;38.92
24278;BMP280;12394;42.692;23.314;2023-07-28T10:55:16;94913.47;;;37.72
24278;BMP280;12394;42.692;23.314;2023-07-28T10:57:43;94923.72;;;36.86
24278;BMP280;12394;42.692;23.314;2023-07-28T11:00:15;94906.72;;;36.03
24278;BMP280;12394;42.692;23.314;2023-07-28T11:02:44;94912.56;;;35.67
24278;BMP280;12394;42.692;23.314;2023-07-28T11:05:11;94898.88;;;34.80
24278;BMP280;12394;42.692;23.314;2023-07-28T11:07:42;94904.72;;;34.38
24278;BMP280;12394;42.692;23.314;2023-07-28T11:10:11;94903.06;;;34.05
24278;BMP280;12394;42.692;23.314;2023-07-28T11:12:44;94904.81;;;33.80
24278;BMP280;12394;42.692;23.314;2023-07-28T11:15:11;94909.75;;;33.45
24278;BMP280;12394;42.692;23.314;2023-07-28T11:17:41;94894.72;;;33.29
24278;BMP280;12394;42.692;23.314;2023-07-28T11:20:18;94888.38;;;32.98
24278;BMP280;12394;42.692;23.314;2023-07-28T11:22:44;94887.59;;;32.83
24278;BMP280;12394;42.692;23.314;2023-07-28T11:25:11;94874.53;;;32.53
24278;BMP280;12394;42.692;23.314;2023-07-28T11:27:37;94882.34;;;32.56
24278;BMP280;12394;42.692;23.314;2023-07-28T11:30:04;94871.50;;;32.28
24278;BMP280;12394;42.692;23.314;2023-07-28T11:32:31;94875.03;;;31.82
24278;BMP280;12394;42.692;23.314;2023-07-28T11:35:06;94872.88;;;31.46
24278;BMP280;12394;42.692;23.314;2023-07-28T11:37:33;94871.22;;;31.30
24278;BMP280;12394;42.692;23.314;2023-07-28T11:40:01;94867.28;;;31.31
24278;BMP280;12394;42.692;23.314;2023-07-28T11:42:28;94861.59;;;31.21
24278;BMP280;12394;42.692;23.314;2023-07-28T11:44:54;94845.72;;;31.05
24278;BMP280;12394;42.692;23.314;2023-07-28T11:47:20;94856.72;;;30.80
24278;BMP280;12394;42.692;23.314;2023-07-28T11:49:49;94866.63;;;30.52
24278;BMP280;12394;42.692;23.314;2023-07-28T11:52:16;94854.81;;;30.36
24278;BMP280;12394;42.692;23.314;2023-07-28T11:54:43;94854.88;;;30.49
24278;BMP280;12394;42.692;23.314;2023-07-28T11:57:09;94855.19;;;30.59
24278;BMP280;12394;42.692;23.314;2023-07-28T11:59:35;94849.69;;;30.64
24278;BMP280;12394;42.692;23.314;2023-07-28T12:02:02;94863.19;;;30.77
24278;BMP280;12394;42.692;23.314;2023-07-28T12:04:39;94866.09;;;30.92
24278;BMP280;12394;42.692;23.314;2023-07-28T12:07:15;94819.31;;;30.71
24278;BMP280;12394;42.692;23.314;2023-07-28T12:12:26;94846.34;;;30.98
24278;BMP280;12394;42.692;23.314;2023-07-28T12:14:52;94833.44;;;30.90
24278;BMP280;12394;42.692;23.314;2023-07-28T12:17:20;94832.59;;;30.96
24278;BMP280;12394;42.692;23.314;2023-07-28T12:20:04;94838.41;;;31.00
24278;BMP280;12394;42.692;23.314;2023-07-28T12:22:38;94827.84;;;31.02
24278;BMP280;12394;42.692;23.314;2023-07-28T12:25:04;94825.44;;;31.11
24278;BMP280;12394;42.692;23.314;2023-07-28T12:27:30;94825.56;;;31.06
24278;BMP280;12394;42.692;23.314;2023-07-28T12:29:56;94800.59;;;31.00
24278;BMP280;12394;42.692;23.314;2023-07-28T12:32:21;94822.84;;;31.06
24278;BMP280;12394;42.692;23.314;2023-07-28T12:34:49;94826.81;;;31.05
24278;BMP280;12394;42.692;23.314;2023-07-28T12:37:15;94814.53;;;30.90
24278;BMP280;12394;42.692;23.314;2023-07-28T12:39:41;94805.22;;;30.78
24278;BMP280;12394;42.692;23.314;2023-07-28T12:42:07;94815.78;;;30.89
24278;BMP280;12394;42.692;23.314;2023-07-28T12:44:33;94788.78;;;30.76
24278;BMP280;12394;42.692;23.314;2023-07-28T12:46:59;94799.66;;;30.97
24278;BMP280;12394;42.692;23.314;2023-07-28T12:49:24;94805.88;;;31.18
24278;BMP280;12394;42.692;23.314;2023-07-28T12:51:50;94801.59;;;31.23
24278;BMP280;12394;42.692;23.314;2023-07-28T12:54:15;94799.66;;;31.10
24278;BMP280;12394;42.692;23.314;2023-07-28T12:56:41;94808.47;;;31.24
24278;BMP280;12394;42.692;23.314;2023-07-28T12:59:07;94796.59;;;31.27
24278;BMP280;12394;42.692;23.314;2023-07-28T13:01:33;94802.78;;;31.35
24278;BMP280;12394;42.692;23.314;2023-07-28T13:03:59;94785.13;;;31.34
24278;BMP280;12394;42.692;23.314;2023-07-28T13:06:24;94795.03;;;31.52
24278;BMP280;12394;42.692;23.314;2023-07-28T13:08:50;94791.13;;;31.40
24278;BMP280;12394;42.692;23.314;2023-07-28T13:11:15;94751.13;;;31.25
24278;BMP280;12394;42.692;23.314;2023-07-28T13:13:41;94772.41;;;31.42
24278;BMP280;12394;42.692;23.314;2023-07-28T13:16:09;94768.44;;;31.43
24278;BMP280;12394;42.692;23.314;2023-07-28T13:18:35;94773.81;;;31.56
24278;BMP280;12394;42.692;23.314;2023-07-28T13:21:00;94774.25;;;31.47
24278;BMP280;12394;42.692;23.314;2023-07-28T13:23:26;94768.25;;;31.41
24278;BMP280;12394;42.692;23.314;2023-07-28T13:25:52;94771.78;;;31.36
24278;BMP280;12394;42.692;23.314;2023-07-28T13:28:18;94760.25;;;31.35
24278;BMP280;12394;42.692;23.314;2023-07-28T13:30:43;94755.78;;;31.38
24278;BMP280;12394;42.692;23.314;2023-07-28T13:33:09;94755.13;;;31.45
24278;BMP280;12394;42.692;23.314;2023-07-28T13:35:34;94763.22;;;31.45
24278;BMP280;12394;42.692;23.314;2023-07-28T13:38:00;94766.72;;;31.53
24278;BMP280;12394;42.692;23.314;2023-07-28T13:40:25;94753.34;;;31.48
24278;BMP280;12394;42.692;23.314;2023-07-28T13:42:51;94746.78;;;31.56
24278;BMP280;12394;42.692;23.314;2023-07-28T13:45:16;94769.88;;;31.44
24278;BMP280;12394;42.692;23.314;2023-07-28T13:47:42;94756.81;;;31.14
24278;BMP280;12394;42.692;23.314;2023-07-28T13:50:08;94745.63;;;30.97
24278;BMP280;12394;42.692;23.314;2023-07-28T13:52:33;94760.03;;;31.13
24278;BMP280;12394;42.692;23.314;2023-07-28T13:54:58;94757.59;;;31.22
24278;BMP280;12394;42.692;23.314;2023-07-28T13:57:24;94750.75;;;31.21
24278;BMP280;12394;42.692;23.314;2023-07-28T13:59:50;94752.53;;;31.19
24278;BMP280;12394;42.692;23.314;2023-07-28T14:02:18;94741.97;;;31.08